• Join FlightAware (Why Join?)
  • Login
  • US Flag 
06:33PM EST


 

Airport Tracker/Info


-or-


 

Live Flight TrackerFlight Track Log ✈ AWE1477 ✈ 20-Jul-2013 ✈ KMSP - KPHL

Flight Track Log - Related Links

Times and Time Zones

All times are in EDT time to prevent confusion due to time zone crossing. See the AWE1477 flight status page for this flight to view local times or setup timezone preferences in your user account.

Time Position Orientation Groundspeed Altitude Reporting Facility
EDT Latitude Longitude Course Direction KTS MPH feet Rate Location/Type
03:04PM 44.9333 -93.2333 90° East 179 206 3,200  Level Minneapolis TRACON
03:05PM 44.9992 -93.2083 15° North 235 270 6,000 2,280 Climbing Minneapolis Center
03:06PM 44.7828 -92.6850 113° Southeast  Level Estimated
03:06PM 45.0233 -93.0986 73° East 290 334 8,500  Level Minneapolis Center
03:07PM 44.6897 -92.5551 135° Southeast  Level FlightAware Approximate
03:07PM 45.0150 -92.9839 96° East 316 364 11,500  Level Minneapolis Center
03:08PM 44.6565 -92.3768 119° Southeast  Level Estimated
03:08PM 44.9694 -92.9050 129° Southeast 322 371 13,800  Level Minneapolis Center
03:09PM 44.6230 -92.1986 90° East  Level Estimated
03:09PM 44.8903 -92.7697 130° Southeast 381 438 15,300  Level Minneapolis Center
03:10PM 44.8142 -92.6403 130° Southeast 426 490 16,900 1,680 Climbing Minneapolis Center
03:11PM 44.7178 -92.4806 130° Southeast 440 506 18,800 1,680 Climbing Minneapolis Center
03:12PM 44.6333 -92.3378 130° Southeast 455 524 20,400 1,380 Climbing Minneapolis Center
03:14PM 44.5461 -92.1881 129° Southeast 482 555 21,700 1,200 Climbing Minneapolis Center
03:15PM 44.4631 -92.0297 126° Southeast 509 586 22,900 1,020 Climbing Minneapolis Center
03:16PM 44.3517 -91.9028 141° Southeast 517 595 23,900 960 Climbing Minneapolis Center
03:17PM 44.2425 -91.7678 138° Southeast 522 601 24,900 480 Climbing Minneapolis Center
03:18PM 44.1781 -91.5750 115° Southeast 546 628 25,000  Climbing Minneapolis Center
03:19PM 44.0869 -91.3061 115° Southeast 551 634 25,000  Level Minneapolis Center
03:20PM 44.0261 -91.1261 115° Southeast 547 629 25,000  Level Minneapolis Center
03:21PM 43.9747 -90.9750 115° Southeast 545 627 25,000  Level Minneapolis Center
03:22PM 43.9206 -90.7356 107° East 546 628 25,000  Level Minneapolis Center
03:23PM 43.8811 -90.5581 107° East 549 632 25,000  Level Minneapolis Center
03:24PM 43.8225 -90.2897 107° East 547 629 25,000  Level Minneapolis Center
03:25PM 43.7767 -90.0869 107° East 551 634 25,000  Level Minneapolis Center
03:26PM 43.7242 -89.8536 107° East 547 629 25,000  Level Minneapolis Center
03:27PM 43.6789 -89.6525 107° East 548 631 25,000  Level Minneapolis Center
03:28PM 43.6328 -89.4561 108° East 541 623 25,000  Level Minneapolis Center
03:29PM 43.5628 -89.2478 115° Southeast 523 602 25,000  Level Minneapolis Center
03:30PM 43.5006 -89.1058 121° Southeast 519 597 25,000  Level Minneapolis Center
03:31PM 43.4194 -88.9064 119° Southeast 516 594 25,000  Level Minneapolis Center
03:33PM 43.3675 -88.7203 111° Southeast 530 610 25,000  Level Minneapolis Center
03:34PM 43.3172 -88.4989 107° East 534 615 25,000  Level Chicago Center
03:35PM 43.2747 -88.3081 107° East 533 613 25,000  Level Chicago Center
03:36PM 43.2242 -88.0847 107° East 529 609 25,000  Level Chicago Center
03:37PM 43.1800 -87.8939 108° East 526 605 25,000  Level Chicago Center
03:38PM 43.1361 -87.7017 107° East 529 609 25,000  Level Chicago Center
03:39PM 43.0908 -87.5097 108° East 530 610 25,000  Level Chicago Center
03:40PM 43.0472 -87.3253 108° East 529 609 25,000  Level Chicago Center
03:41PM 43.0022 -87.1333 108° East 532 612 25,000  Level Chicago Center
03:42PM 42.9556 -86.9419 108° East 533 613 25,000  Level Chicago Center
03:43PM 42.8986 -86.7100 108° East 539 620 25,000  Level Chicago Center
03:44PM 42.8525 -86.5208 108° East 533 613 25,000  Level Chicago Center
03:45PM 42.8058 -86.3347 109° East 528 608 25,000  Level Chicago Center
03:46PM 42.7483 -86.1578 114° Southeast 523 602 25,000  Level Chicago Center
03:47PM 42.6650 -86.0039 126° Southeast 513 590 25,000  Level Chicago Center
03:48PM 42.5881 -85.7947 116° Southeast 524 603 25,000  Level Chicago Center
03:49PM 42.5317 -85.6161 113° Southeast 522 601 25,000  Level Chicago Center
03:50PM 42.4747 -85.4367 113° Southeast 524 603 25,000  Level Chicago Center
03:51PM 42.4183 -85.2581 113° Southeast 521 600 25,000  Level Chicago Center
03:52PM 42.3597 -85.0817 114° Southeast 517 595 25,000  Level Chicago Center
03:53PM 42.3028 -84.9031 113° Southeast 520 598 25,000  Level Chicago Center
03:54PM 42.2325 -84.6908 114° Southeast 520 598 25,000  Level Chicago Center
03:55PM 42.1744 -84.5125 114° Southeast 520 598 25,000  Level Chicago Center
03:56PM 42.1164 -84.3339 114° Southeast 522 601 25,000  Level Chicago Center
03:57PM 42.0586 -84.1564 114° Southeast 522 601 25,000  Level Chicago Center
03:58PM 41.9981 -83.9797 115° Southeast 522 601 25,000  Level Chicago Center
03:59PM 41.9356 -83.8069 116° Southeast 517 595 25,000  Level Chicago Center
04:01PM 41.8481 -83.5658 116° Southeast 514 592 25,000  Level Cleveland Center
04:02PM 41.7900 -83.3906 114° Southeast 514 592 25,000  Level Cleveland Center
04:03PM 41.7464 -83.2078 108° East 514 592 25,000  Level Cleveland Center
04:04PM 41.7028 -83.0194 107° East 519 597 25,000  Level Cleveland Center
04:05PM 41.6583 -82.8372 108° East 519 597 25,000  Level Cleveland Center
04:06PM 41.6081 -82.6381 109° East 519 597 25,000  Level Cleveland Center
04:07PM 41.5528 -82.4617 113° Southeast 519 597 25,000  Level Cleveland Center
04:08PM 41.4992 -82.2825 112° Southeast 519 597 25,000  Level Cleveland Center
04:09PM 41.4433 -82.1067 113° Southeast 519 597 25,000  Level Cleveland Center
04:10PM 41.3911 -81.9475 114° Southeast 519 597 25,000  Level Cleveland Center
04:11PM 41.3389 -81.7694 111° Southeast 519 597 25,000  Level Cleveland Center
04:12PM 41.2822 -81.5917 113° Southeast 519 597 25,000  Level Cleveland Center
04:13PM 41.2211 -81.4003 113° Southeast 519 597 25,000  Level Cleveland Center
04:14PM 41.1597 -81.2286 115° Southeast 519 597 25,000  Level Cleveland Center
04:15PM 41.1022 -81.0489 113° Southeast 519 597 25,000  Level Cleveland Center
04:16PM 41.0486 -80.8750 112° Southeast 519 597 25,000  Level Cleveland Center
04:17PM 40.9906 -80.7014 114° Southeast 519 597 25,000  Level Cleveland Center
04:18PM 40.9364 -80.5364 113° Southeast 505 581 25,000  Level Cleveland Center
04:19PM 40.8800 -80.3717 114° Southeast 500 575 25,000  Level Cleveland Center
04:20PM 40.8275 -80.2264 115° Southeast 488 562 25,000  Level Cleveland Center
04:21PM 40.7686 -80.0622 115° Southeast 482 555 25,000  Level Cleveland Center
04:22PM 40.7072 -79.8847 114° Southeast 482 555 25,000  Level Cleveland Center
04:23PM 40.6497 -79.7239 115° Southeast 482 555 25,000  Level Cleveland Center
04:24PM 40.5900 -79.5606 116° Southeast 482 555 25,000  Level Cleveland Center
04:25PM 40.5364 -79.3975 113° Southeast 487 560 25,000  Level Cleveland Center
04:26PM 40.5097 -79.2422 103° East 481 554 25,000  Level Cleveland Center
04:27PM 40.4822 -79.0625 101° East 481 554 25,000  Level Cleveland Center
04:28PM 40.4544 -78.8667 100° East 493 567 25,000  Level Cleveland Center
04:29PM 40.4267 -78.6931 102° East 493 567 25,000  Level Cleveland Center
04:30PM 40.3986 -78.5139 102° East 493 567 25,000  Level Cleveland Center
04:31PM 40.3508 -78.2014 101° East 480 552 25,000  Level New York Center
04:32PM 40.3200 -78.0264 103° East 485 558 25,000  Level New York Center
04:33PM 40.3100 -77.8483 94° East 485 558 25,000 -360 Level New York Center
04:34PM 40.3100 -77.6714 90° East 485 558 24,300 -900 Descending New York Center
04:35PM 40.3094 -77.4997 90° East 485 558 23,300 -1,020 Descending New York Center
04:36PM 40.3069 -77.3225 91° East 480 552 22,300 -1,020 Descending New York Center
04:37PM 40.2886 -77.1631 99° East 480 552 21,300 -660 Descending New York Center
04:38PM 40.2628 -76.9783 100° East 493 567 21,000 -720 Descending New York Center
04:39PM 40.2367 -76.8019 101° East 499 574 19,900 -1,800 Descending New York Center
04:40PM 40.2119 -76.6286 101° East 486 559 17,500 -2,280 Descending New York Center
04:41PM 40.1925 -76.4747 99° East 446 513 15,500 -1,920 Descending New York Center
04:42PM 40.1683 -76.3258 102° East 403 464 13,700 -1,740 Descending New York Center
04:43PM 40.1494 -76.1914 100° East 370 426 12,000 -1,680 Descending New York Center
04:44PM 40.1303 -76.0622 101° East 365 420 10,400 -1,260 Descending New York Center
04:45PM 40.1142 -75.9578 101° East 338 389 9,600 -1,080 Descending New York Center
04:46PM 40.0925 -75.8342 103° East 314 361 8,300 -840 Descending New York Center
04:47PM 40.0822 -75.7331 98° East 294 338 8,000 -180 Descending New York Center
04:48PM 40.1203 -75.6650 54° Northeast 235 270 8,000 -360 Level New York Center
04:49PM 40.1533 -75.5722 65° Northeast 247 284 7,400 -900 Descending New York Center
04:50PM 40.1653 -75.4861 80° East 258 297 6,300 -720 Descending New York Center
04:51PM 40.1797 -75.3839 79° East 258 297 6,000 -180 Descending New York Center
04:52PM 40.1808 -75.2972 89° East 258 297 6,000  Level New York Center
04:53PM 40.1167 -75.2500 151° Southeast 224 258 6,000  Level Philadelphia TRACON
04:54PM 40.0667 -75.2000 143° Southeast 228 262 6,000  Level Philadelphia TRACON
04:55PM 40.0000 -75.1833 169° South 216 249 6,000  Level Philadelphia TRACON
04:56PM 39.9833 -75.1167 108° East 242 278 6,000 -360 Level Philadelphia TRACON
04:57PM 40.0000 -75.0333 75° East 237 273 5,300 -900 Descending Philadelphia TRACON
04:58PM 40.0000 -74.9667 90° East 225 259 4,300 -1,080 Descending Philadelphia TRACON
04:59PM 39.9500 -75.0000 207° Southwest 187 215 3,200 -1,140 Descending Philadelphia TRACON
05:00PM 39.9167 -75.0500 229° Southwest 187 215 2,100 -1,140 Descending Philadelphia TRACON